Time;durP1;ratioP1;P1;durP2;ratioP2;P2;SDS_P1;SDS_P2;PMS_P1;PMS_P2;Temp;Humidity;BMP_temperature;BMP_pressure;BME280_temperature;BME280_humidity;BME280_pressure;Samples;Min_cycle;Max_cycle;Signal;HPM_P1;HPM_P2
2022/05/05 00:02:03;;;;;;;;;;;;;;;22.66;62.46;97295.76;591401;240;68811;-73
2022/05/05 00:04:30;;;;;;;;;;;;;;;22.65;62.79;97292.28;591450;240;63145;-73
2022/05/05 00:06:58;;;;;;;;;;;;;;;22.65;62.81;97297.64;591423;240;66495;-73
2022/05/05 00:09:25;;;;;;;;;;;;;;;22.66;63.30;97296.55;591426;240;66509;-73
2022/05/05 00:14:40;;;;;;;;;;;;;;;22.63;62.42;97291.75;591441;240;68804;-73
2022/05/05 00:17:08;;;;;;;;;;;;;;;22.64;63.41;97292.55;591430;240;66502;-69
2022/05/05 00:19:37;;;;;;;;;;;;;;;22.63;62.73;97288.27;591460;240;65137;-72
2022/05/05 00:22:06;;;;;;;;;;;;;;;22.63;62.93;97296.31;591398;240;68205;-72
2022/05/05 00:24:34;;;;;;;;;;;;;;;22.63;62.59;97290.95;591442;240;68539;-72
2022/05/05 00:27:01;;;;;;;;;;;;;;;22.62;62.80;97298.19;591469;240;65365;-72
2022/05/05 00:29:30;;;;;;;;;;;;;;;22.62;63.98;97295.52;591393;240;66289;-72
2022/05/05 00:31:57;;;;;;;;;;;;;;;22.61;63.54;97293.89;591431;240;68585;-72
2022/05/05 00:34:24;;;;;;;;;;;;;;;22.59;64.06;97290.71;591437;240;63188;-72
2022/05/05 00:36:52;;;;;;;;;;;;;;;22.60;64.04;97293.09;591402;240;68677;-72
2022/05/05 00:39:20;;;;;;;;;;;;;;;22.61;64.39;97296.57;591490;240;68536;-72
2022/05/05 00:41:48;;;;;;;;;;;;;;;22.60;63.84;97292.30;591410;240;63105;-72
2022/05/05 00:44:16;;;;;;;;;;;;;;;22.58;62.62;97297.92;591455;240;66552;-72
2022/05/05 00:46:50;;;;;;;;;;;;;;;22.57;63.00;97287.50;591418;240;66483;-72
2022/05/05 00:49:18;;;;;;;;;;;;;;;22.58;62.90;97294.44;591418;240;63015;-72
2022/05/05 00:51:45;;;;;;;;;;;;;;;22.57;62.19;97290.97;591481;240;66491;-72
2022/05/05 00:54:13;;;;;;;;;;;;;;;22.56;63.19;97292.05;591427;240;66549;-72
2022/05/05 00:56:42;;;;;;;;;;;;;;;22.57;63.24;97292.85;591456;240;65359;-72
2022/05/05 00:59:10;;;;;;;;;;;;;;;22.57;63.66;97287.50;591424;237;68718;-72
2022/05/05 01:01:37;;;;;;;;;;;;;;;22.58;63.31;97294.44;591419;240;68670;-72
2022/05/05 01:04:07;;;;;;;;;;;;;;;22.56;62.88;97291.23;591463;240;66299;-72
2022/05/05 01:06:35;;;;;;;;;;;;;;;22.57;64.41;97292.85;591515;240;68415;-72
2022/05/05 01:09:03;;;;;;;;;;;;;;;22.56;63.38;97296.59;591472;240;68016;-70
2022/05/05 01:11:30;;;;;;;;;;;;;;;22.54;62.52;97288.84;591473;240;65141;-70
2022/05/05 01:13:58;;;;;;;;;;;;;;;22.55;62.54;97295.00;591456;240;69710;-70
2022/05/05 01:16:25;;;;;;;;;;;;;;;22.53;63.33;97289.90;591397;240;68580;-70
2022/05/05 01:18:55;;;;;;;;;;;;;;;22.54;63.26;97290.73;591541;240;65118;-70
2022/05/05 01:21:22;;;;;;;;;;;;;;;22.54;63.89;97290.73;591481;240;68361;-70
2022/05/05 01:23:50;;;;;;;;;;;;;;;22.53;62.34;97291.78;591500;240;66206;-70
2022/05/05 01:29:04;;;;;;;;;;;;;;;22.51;63.23;97297.43;591338;240;68563;-69
2022/05/05 01:31:32;;;;;;;;;;;;;;;22.52;62.41;97298.23;588769;241;68588;-70
2022/05/05 01:33:59;;;;;;;;;;;;;;;22.51;63.42;97301.99;588790;241;65491;-69
2022/05/05 01:36:27;;;;;;;;;;;;;;;22.53;64.18;97307.85;588769;241;68595;-70
2022/05/05 01:38:54;;;;;;;;;;;;;;;22.51;63.33;97301.99;588781;241;66506;-69
2022/05/05 01:41:22;;;;;;;;;;;;;;;22.50;62.54;97303.84;588718;241;62983;-69
2022/05/05 01:43:49;;;;;;;;;;;;;;;22.51;64.19;97307.34;588807;241;66745;-69
2022/05/05 01:46:17;;;;;;;;;;;;;;;22.49;63.04;97302.25;588764;241;68384;-69
2022/05/05 01:48:44;;;;;;;;;;;;;;;22.50;63.06;97298.48;588766;241;63162;-69
2022/05/05 01:51:12;;;;;;;;;;;;;;;22.48;63.08;97294.48;588789;241;66427;-69
2022/05/05 01:53:39;;;;;;;;;;;;;;;22.48;62.84;97299.83;588742;241;68523;-72
2022/05/05 01:56:07;;;;;;;;;;;;;;;22.49;63.06;97298.78;588815;241;65664;-72
2022/05/05 01:58:35;;;;;;;;;;;;;;;22.48;63.40;97292.63;588779;241;68946;-72
2022/05/05 02:01:02;;;;;;;;;;;;;;;22.47;62.20;97300.92;588775;241;68595;-72
2022/05/05 02:03:30;;;;;;;;;;;;;;;22.47;63.60;97303.59;588755;241;65420;-72
2022/05/05 02:05:57;;;;;;;;;;;;;;;22.47;63.22;97300.92;588702;238;68658;-72
2022/05/05 02:08:25;;;;;;;;;;;;;;;22.46;62.66;97302.80;588750;241;68476;-72
2022/05/05 02:10:52;;;;;;;;;;;;;;;22.47;63.51;97314.31;588774;241;65489;-72
2022/05/05 02:13:20;;;;;;;;;;;;;;;22.46;63.24;97307.36;588764;241;68649;-72
2022/05/05 02:15:47;;;;;;;;;;;;;;;22.46;63.15;97310.04;588757;241;66151;-73
2022/05/05 02:18:15;;;;;;;;;;;;;;;22.46;63.50;97296.65;588754;241;62930;-73
2022/05/05 02:20:43;;;;;;;;;;;;;;;22.45;62.97;97305.73;588804;241;68359;-72
2022/05/05 02:23:10;;;;;;;;;;;;;;;22.45;63.23;97305.73;588787;241;68328;-72
2022/05/05 02:25:38;;;;;;;;;;;;;;;22.45;63.45;97306.53;588762;241;65420;-72
2022/05/05 02:28:06;;;;;;;;;;;;;;;22.45;61.89;97311.09;588758;241;68675;-72
2022/05/05 02:30:34;;;;;;;;;;;;;;;22.45;62.61;97305.73;590424;240;68903;-72
2022/05/05 02:33:01;;;;;;;;;;;;;;;22.43;62.62;97307.91;591509;240;65449;-72
2022/05/05 02:35:29;;;;;;;;;;;;;;;22.43;61.83;97307.91;591441;240;68760;-72
2022/05/05 02:40:42;;;;;;;;;;;;;;;22.42;61.99;97306.29;591455;240;63152;-72
2022/05/05 02:43:09;;;;;;;;;;;;;;;22.42;62.03;97311.64;591473;240;68744;-72
2022/05/05 02:45:37;;;;;;;;;;;;;;;22.41;61.79;97316.20;591437;240;68567;-72
2022/05/05 02:48:04;;;;;;;;;;;;;;;22.43;63.07;97321.30;591497;240;65369;-72
2022/05/05 02:50:32;;;;;;;;;;;;;;;22.41;62.43;97323.44;591464;240;66200;-72
2022/05/05 02:52:59;;;;;;;;;;;;;;;22.42;62.32;97325.03;591436;240;68497;-72
2022/05/05 02:55:27;;;;;;;;;;;;;;;22.41;62.70;97328.80;591438;240;65305;-72
2022/05/05 02:57:54;;;;;;;;;;;;;;;22.39;61.73;97340.56;591441;240;68929;-72
2022/05/05 03:00:22;;;;;;;;;;;;;;;22.39;62.65;97329.85;591483;240;68667;-72
2022/05/05 03:02:50;;;;;;;;;;;;;;;22.39;62.28;97337.09;591454;240;63128;-72
2022/05/05 03:05:18;;;;;;;;;;;;;;;22.38;61.74;97343.53;591433;240;68645;-72
2022/05/05 03:07:48;;;;;;;;;;;;;;;22.39;62.71;97339.77;591423;240;68577;-72
2022/05/05 03:10:15;;;;;;;;;;;;;;;22.37;62.23;97355.30;591471;240;63272;-70
2022/05/05 03:12:42;;;;;;;;;;;;;;;22.38;62.77;97349.68;591456;240;68678;-70
2022/05/05 03:15:10;;;;;;;;;;;;;;;22.38;61.91;97351.56;591468;240;66508;-70
2022/05/05 03:17:38;;;;;;;;;;;;;;;22.37;62.93;97358.80;591452;240;64039;-70
2022/05/05 03:20:06;;;;;;;;;;;;;;;22.37;64.18;97366.00;591417;240;66553;-70
2022/05/05 03:22:33;;;;;;;;;;;;;;;22.36;62.45;97361.73;591451;240;66388;-70
2022/05/05 03:25:01;;;;;;;;;;;;;;;22.36;62.33;97372.45;591456;240;62997;-70
2022/05/05 03:27:28;;;;;;;;;;;;;;;22.35;62.04;97368.97;591406;240;66537;-70
2022/05/05 03:29:56;;;;;;;;;;;;;;;22.35;62.81;97382.36;591415;240;66502;-70
2022/05/05 03:32:23;;;;;;;;;;;;;;;22.35;62.15;97382.36;591449;240;65167;-70
2022/05/05 03:34:51;;;;;;;;;;;;;;;22.34;62.62;97388.80;591425;240;68654;-70
2022/05/05 03:37:19;;;;;;;;;;;;;;;22.34;62.43;97391.48;591476;240;68398;-70
2022/05/05 03:39:47;;;;;;;;;;;;;;;22.34;62.24;97390.65;591498;240;62985;-70
2022/05/05 03:42:14;;;;;;;;;;;;;;;22.33;64.89;97395.20;591420;240;68778;-70
2022/05/05 03:44:42;;;;;;;;;;;;;;;22.34;65.52;97390.65;591402;240;69828;-70
2022/05/05 03:47:10;;;;;;;;;;;;;;;22.32;62.15;97396.29;591434;240;65463;-70
2022/05/05 03:49:37;;;;;;;;;;;;;;;22.32;62.73;97401.64;591423;240;68870;-70
2022/05/05 03:52:05;;;;;;;;;;;;;;;22.32;62.12;97404.33;591481;240;68910;-70
2022/05/05 03:54:33;;;;;;;;;;;;;;;22.31;62.41;97402.70;591427;240;65558;-70
2022/05/05 03:57:00;;;;;;;;;;;;;;;22.30;62.35;97403.78;591432;240;68755;-69
2022/05/05 03:59:28;;;;;;;;;;;;;;;22.29;61.97;97404.87;591450;240;66400;-70
2022/05/05 04:01:55;;;;;;;;;;;;;;;22.29;62.73;97404.87;591461;240;64078;-70
2022/05/05 04:04:25;;;;;;;;;;;;;;;22.30;62.59;97411.81;591477;240;69287;-71
2022/05/05 04:06:53;;;;;;;;;;;;;;;22.29;62.22;97410.22;591488;240;68576;-71
2022/05/05 04:09:21;;;;;;;;;;;;;;;22.29;62.06;97410.22;591375;240;65272;-71
2022/05/05 04:11:48;;;;;;;;;;;;;;;22.29;61.94;97414.75;591448;240;69075;-71
2022/05/05 04:14:16;;;;;;;;;;;;;;;22.28;62.53;97411.28;591435;240;67281;-71
2022/05/05 04:16:43;;;;;;;;;;;;;;;22.28;62.46;97411.28;591461;240;63109;-71
2022/05/05 04:19:11;;;;;;;;;;;;;;;22.28;62.32;97413.16;591501;240;68735;-71
2022/05/05 04:21:38;;;;;;;;;;;;;;;22.27;62.45;97420.39;591398;240;68712;-71
2022/05/05 04:24:06;;;;;;;;;;;;;;;22.27;62.40;97414.23;591427;240;65115;-71
2022/05/05 04:26:34;;;;;;;;;;;;;;;22.27;63.03;97422.27;591474;240;68969;-71
2022/05/05 04:29:02;;;;;;;;;;;;;;;22.27;63.57;97424.95;591356;240;68464;-71
2022/05/05 04:31:30;;;;;;;;;;;;;;;22.25;63.03;97424.41;588786;241;65327;-71
2022/05/05 04:33:59;;;;;;;;;;;;;;;22.25;62.23;97435.11;588725;239;68971;-71
2022/05/05 04:36:26;;;;;;;;;;;;;;;22.24;63.32;97426.28;588693;241;68646;-73
2022/05/05 04:38:54;;;;;;;;;;;;;;;22.23;63.77;97426.54;588760;241;65145;-73
2022/05/05 04:41:22;;;;;;;;;;;;;;;22.23;63.17;97423.86;588762;241;68510;-73
2022/05/05 04:43:49;;;;;;;;;;;;;;;22.23;63.20;97419.31;588787;241;68544;-73
2022/05/05 04:46:17;;;;;;;;;;;;;;;22.22;62.96;97420.39;588718;241;65354;-73
2022/05/05 04:48:44;;;;;;;;;;;;;;;22.22;63.31;97416.92;588723;241;68740;-73
2022/05/05 04:51:12;;;;;;;;;;;;;;;22.20;62.20;97411.02;588755;241;66250;-73
2022/05/05 04:53:39;;;;;;;;;;;;;;;22.21;62.90;97424.15;588744;241;63001;-73
2022/05/05 04:56:10;;;;;;;;;;;;;;;22.21;63.68;97418.80;588736;241;69575;-73
2022/05/05 04:58:36;;;;;;;;;;;;;;;22.20;64.05;97422.52;588777;240;69084;-71
2022/05/05 05:01:04;;;;;;;;;;;;;;;22.19;62.90;97414.78;588746;241;64170;-72
2022/05/05 05:03:39;;;;;;;;;;;;;;;22.19;61.90;97415.58;588816;241;68771;-72
2022/05/05 05:06:08;;;;;;;;;;;;;;;22.19;62.93;97404.88;588764;241;68498;-72
2022/05/05 05:08:35;;;;;;;;;;;;;;;22.18;63.75;97411.30;588758;241;65285;-72
2022/05/05 05:11:03;;;;;;;;;;;;;;;22.17;62.54;97415.80;588833;241;68651;-73
2022/05/05 05:13:31;;;;;;;;;;;;;;;22.18;63.12;97408.63;588772;241;68467;-72
2022/05/05 05:15:58;;;;;;;;;;;;;;;22.16;63.38;97411.53;588785;241;65376;-72
2022/05/05 05:18:26;;;;;;;;;;;;;;;22.17;63.50;97412.33;588759;241;65873;-73
2022/05/05 05:20:53;;;;;;;;;;;;;;;22.18;63.20;97408.63;588793;241;68300;-73
2022/05/05 05:23:21;;;;;;;;;;;;;;;22.15;63.93;97404.58;588659;241;63037;-73
2022/05/05 05:25:48;;;;;;;;;;;;;;;22.15;62.18;97414.46;588708;241;66624;-73
2022/05/05 05:28:16;;;;;;;;;;;;;;;22.14;62.24;97405.64;588738;241;68428;-74
2022/05/05 05:30:43;;;;;;;;;;;;;;;22.14;62.22;97415.55;588734;240;65185;-73
2022/05/05 05:33:11;;;;;;;;;;;;;;;22.18;63.16;97416.66;588734;241;68408;-73
2022/05/05 05:35:39;;;;;;;;;;;;;;;22.16;62.33;97416.09;588810;241;66123;-73
2022/05/05 05:38:06;;;;;;;;;;;;;;;22.16;64.23;97416.88;588777;241;65452;-73
2022/05/05 05:40:34;;;;;;;;;;;;;;;22.17;62.63;97415.00;588777;241;66442;-73
2022/05/05 05:43:01;;;;;;;;;;;;;;;22.13;63.39;97417.42;588756;241;66522;-73
2022/05/05 05:45:29;;;;;;;;;;;;;;;22.16;63.62;97424.12;588746;241;63047;-73
2022/05/05 05:47:57;;;;;;;;;;;;;;;22.15;63.65;97433.20;588660;241;68848;-73
2022/05/05 05:50:25;;;;;;;;;;;;;;;22.15;63.42;97427.84;588809;241;68742;-75
2022/05/05 05:52:53;;;;;;;;;;;;;;;22.14;64.22;97428.93;588720;241;65060;-70
2022/05/05 05:55:20;;;;;;;;;;;;;;;22.13;62.16;97435.36;588757;241;69642;-70
2022/05/05 05:57:50;;;;;;;;;;;;;;;22.10;63.59;97427.88;588103;241;66442;-70
2022/05/05 06:00:17;;;;;;;;;;;;;;;22.09;62.34;97431.61;588734;241;65162;-68
2022/05/05 06:05:21;;;;;;;;;;;;;;;22.07;62.94;97434.56;575764;243;68541;-70
2022/05/05 06:07:48;;;;;;;;;;;;;;;22.07;62.27;97439.92;582185;243;65192;-69
2022/05/05 06:10:20;;;;;;;;;;;;;;;22.05;62.14;97431.34;582241;239;68887;-70
2022/05/05 06:12:47;;;;;;;;;;;;;;;22.05;61.19;97435.90;582291;243;66870;-70
2022/05/05 06:15:15;;;;;;;;;;;;;;;22.04;61.13;97429.72;582370;243;63908;-70
2022/05/05 06:17:42;;;;;;;;;;;;;;;22.06;60.98;97427.59;582448;243;66488;-71
2022/05/05 06:20:10;;;;;;;;;;;;;;;22.06;61.01;97426.79;582329;243;68584;-70
2022/05/05 06:22:40;;;;;;;;;;;;;;;22.05;59.91;97425.19;582334;243;63029;-70
2022/05/05 06:25:11;;;;;;;;;;;;;;;22.06;60.00;97427.59;582344;243;66598;-70
2022/05/05 06:27:38;;;;;;;;;;;;;;;22.04;60.22;97427.05;582324;243;66365;-70
2022/05/05 06:30:06;;;;;;;;;;;;;;;22.07;62.20;97428.38;583549;242;63016;-70
2022/05/05 06:32:34;;;;;;;;;;;;;;;22.08;61.08;97424.66;584876;242;68395;-70
2022/05/05 06:35:02;;;;;;;;;;;;;;;22.09;60.47;97421.70;584751;242;66289;-70
2022/05/05 06:37:30;;;;;;;;;;;;;;;22.11;61.08;97429.47;584928;242;65416;-73
2022/05/05 06:39:57;;;;;;;;;;;;;;;22.12;60.49;97431.06;584908;242;66136;-73
2022/05/05 06:42:25;;;;;;;;;;;;;;;22.13;59.11;97427.34;584857;242;66226;-74
2022/05/05 06:44:52;;;;;;;;;;;;;;;22.14;59.58;97426.25;584943;242;65434;-70
2022/05/05 06:47:20;;;;;;;;;;;;;;;22.09;60.59;97431.61;584816;242;66271;-69
2022/05/05 06:49:47;;;;;;;;;;;;;;;22.10;60.31;97431.34;584823;242;66535;-70
2022/05/05 06:52:15;;;;;;;;;;;;;;;22.10;60.02;97431.34;584916;242;63105;-70
2022/05/05 06:54:42;;;;;;;;;;;;;;;22.10;60.73;97435.91;584937;242;66254;-70
2022/05/05 06:57:10;;;;;;;;;;;;;;;22.11;60.43;97429.47;584770;242;66292;-70
2022/05/05 06:59:38;;;;;;;;;;;;;;;22.09;60.38;97432.40;584753;242;62914;-73
2022/05/05 07:02:05;;;;;;;;;;;;;;;22.10;60.64;97438.58;584794;242;66264;-73
2022/05/05 07:07:21;;;;;;;;;;;;;;;22.11;60.59;97437.50;584355;242;62789;-73
2022/05/05 07:12:33;;;;;;;;;;;;;;;22.09;61.65;97439.63;584876;242;68415;-71
2022/05/05 07:15:00;;;;;;;;;;;;;;;22.09;61.04;97443.11;584824;242;63009;-70
2022/05/05 07:17:28;;;;;;;;;;;;;;;22.10;62.12;97446.61;584804;242;66281;-69
2022/05/05 07:19:55;;;;;;;;;;;;;;;22.09;61.62;97439.63;584895;242;68175;-70
2022/05/05 07:22:23;;;;;;;;;;;;;;;22.10;62.89;97449.28;584699;242;65465;-70
2022/05/05 07:24:51;;;;;;;;;;;;;;;22.10;61.42;97449.28;584779;242;69108;-70
2022/05/05 07:27:18;;;;;;;;;;;;;;;22.09;61.36;97448.46;584572;242;68624;-70
2022/05/05 07:29:46;;;;;;;;;;;;;;;22.09;61.47;97443.11;584524;242;65403;-70
2022/05/05 07:32:13;;;;;;;;;;;;;;;22.10;61.33;97447.41;584813;242;66266;-73
2022/05/05 07:34:42;;;;;;;;;;;;;;;22.09;61.39;97448.46;584880;239;66278;-73
2022/05/05 07:37:09;;;;;;;;;;;;;;;22.11;62.01;97450.88;584806;242;65351;-73
2022/05/05 07:39:37;;;;;;;;;;;;;;;22.10;62.06;97457.31;584801;242;68397;-73
2022/05/05 07:42:05;;;;;;;;;;;;;;;22.10;62.43;97449.28;584869;240;68291;-73
2022/05/05 07:44:32;;;;;;;;;;;;;;;22.09;61.33;97447.66;584850;242;65370;-73
2022/05/05 07:47:00;;;;;;;;;;;;;;;22.09;61.39;97453.02;584827;242;68147;-73
2022/05/05 07:49:27;;;;;;;;;;;;;;;22.09;62.49;97459.16;584848;242;68363;-73
2022/05/05 07:51:55;;;;;;;;;;;;;;;22.09;62.80;97458.37;584796;242;65217;-73
2022/05/05 07:54:36;;;;;;;;;;;;;;;22.09;62.65;97455.69;584675;242;68697;-73
2022/05/05 07:57:05;;;;;;;;;;;;;;;22.10;63.24;97457.31;584776;239;66446;-71
2022/05/05 07:59:33;;;;;;;;;;;;;;;22.10;63.17;97457.31;584673;242;62914;-72
2022/05/05 08:02:00;;;;;;;;;;;;;;;22.10;61.95;97465.34;584543;242;66186;-70
2022/05/05 08:04:28;;;;;;;;;;;;;;;22.12;64.10;97463.19;584832;242;66312;-69
2022/05/05 08:06:55;;;;;;;;;;;;;;;22.10;62.17;97457.31;584652;242;63574;-68
2022/05/05 08:09:23;;;;;;;;;;;;;;;22.10;63.08;97457.31;584607;242;66338;-67
2022/05/05 08:11:50;;;;;;;;;;;;;;;22.10;62.23;97460.80;584643;242;66268;-68
2022/05/05 08:14:18;;;;;;;;;;;;;;;22.11;63.80;97457.03;584807;242;65057;-68
2022/05/05 08:16:45;;;;;;;;;;;;;;;22.11;63.30;97456.23;584608;242;68437;-68
2022/05/05 08:19:13;;;;;;;;;;;;;;;22.13;63.48;97462.13;584433;242;66358;-68
2022/05/05 08:21:40;;;;;;;;;;;;;;;22.12;63.97;97453.27;584716;242;63050;-68
2022/05/05 08:29:39;;;;;;;;;;;;;;;22.14;64.08;97461.05;584825;242;65453;-72
2022/05/05 08:32:07;;;;;;;;;;;;;;;22.13;65.12;97454.10;584841;242;66212;-73
2022/05/05 08:34:34;;;;;;;;;;;;;;;22.12;64.00;97457.83;584847;242;68166;-72
2022/05/05 08:37:02;;;;;;;;;;;;;;;22.13;64.74;97460.25;584808;242;65406;-71
2022/05/05 08:39:30;;;;;;;;;;;;;;;22.13;64.30;97464.81;589012;240;68696;-72
2022/05/05 08:41:59;;;;;;;;;;;;;;;22.13;64.32;97454.10;590858;240;68662;-73
2022/05/05 08:44:26;;;;;;;;;;;;;;;22.13;64.31;97456.78;590888;240;63026;-71
2022/05/05 08:46:55;;;;;;;;;;;;;;;22.14;63.79;97461.05;590840;240;67325;-72
2022/05/05 08:49:23;;;;;;;;;;;;;;;22.15;64.34;97462.65;590859;240;69353;-73
2022/05/05 08:51:52;;;;;;;;;;;;;;;22.15;64.24;97459.97;590878;240;63106;-73
2022/05/05 08:54:21;;;;;;;;;;;;;;;22.15;64.88;97457.30;590922;240;69247;-76
2022/05/05 08:56:50;;;;;;;;;;;;;;;22.16;64.63;97462.39;590847;240;66443;-75
2022/05/05 08:59:18;;;;;;;;;;;;;;;22.18;63.43;97462.17;588662;239;65560;-73
2022/05/05 09:01:46;;;;;;;;;;;;;;;22.19;64.76;97463.77;590796;240;66010;-73
2022/05/05 09:04:14;;;;;;;;;;;;;;;22.19;64.72;97463.77;590760;240;66239;-73
2022/05/05 09:06:46;;;;;;;;;;;;;;;22.17;64.18;97461.31;590880;240;65407;-77
2022/05/05 09:09:25;;;;;;;;;;;;;;;22.19;63.38;97457.61;590792;240;68944;-73
2022/05/05 09:12:06;;;;;;;;;;;;;;;22.20;64.04;97457.33;590859;240;68605;-66
2022/05/05 09:14:43;;;;;;;;;;;;;;;22.19;60.82;97461.09;589755;240;65336;-74
2022/05/05 09:17:11;;;;;;;;;;;;;;;22.20;63.61;97457.33;590435;240;68370;-77
2022/05/05 09:19:40;;;;;;;;;;;;;;;22.21;62.80;97458.13;590694;240;65943;-73
2022/05/05 09:22:08;;;;;;;;;;;;;;;22.21;62.59;97456.27;590802;240;65464;-75
2022/05/05 09:24:36;;;;;;;;;;;;;;;22.22;62.93;97454.39;590964;240;68185;-74
2022/05/05 09:27:21;;;;;;;;;;;;;;;22.23;63.98;97458.67;590820;240;66277;-74
2022/05/05 09:29:57;;;;;;;;;;;;;;;22.23;65.08;97455.99;589330;239;65489;-73
2022/05/05 09:32:32;;;;;;;;;;;;;;;22.23;64.89;97455.99;586394;242;68260;-75
2022/05/05 09:35:02;;;;;;;;;;;;;;;22.22;63.64;97459.75;586270;242;68139;-74
2022/05/05 09:37:30;;;;;;;;;;;;;;;22.22;62.92;97460.55;586474;242;63315;-73
2022/05/05 09:40:00;;;;;;;;;;;;;;;22.23;62.41;97459.47;586485;242;68126;-74
2022/05/05 09:42:37;;;;;;;;;;;;;;;22.22;63.38;97457.88;586434;242;47971;-74
2022/05/05 09:45:18;;;;;;;;;;;;;;;22.24;64.17;97463.77;586475;242;65521;-75
2022/05/05 09:47:50;;;;;;;;;;;;;;;22.25;63.92;97460.01;586312;242;66083;-75
2022/05/05 09:50:23;;;;;;;;;;;;;;;22.25;62.79;97465.36;586453;242;68027;-75
2022/05/05 09:58:23;;;;;;;;;;;;;;;22.25;63.59;97462.69;586404;242;68645;-74
2022/05/05 10:06:21;;;;;;;;;;;;;;;22.26;63.32;97464.31;585968;242;68418;-73
2022/05/05 10:08:50;;;;;;;;;;;;;;;22.27;63.06;97455.20;586317;242;64394;-71
2022/05/05 10:11:19;;;;;;;;;;;;;;;22.28;62.39;97462.14;586407;242;68523;-71
2022/05/05 10:13:47;;;;;;;;;;;;;;;22.28;63.97;97462.14;586382;242;68275;-70
2022/05/05 10:16:17;;;;;;;;;;;;;;;22.28;62.91;97456.79;586464;242;65556;-69
2022/05/05 10:18:45;;;;;;;;;;;;;;;22.28;62.83;97451.44;586436;242;67982;-73
2022/05/05 10:21:17;;;;;;;;;;;;;;;22.29;63.86;97455.73;586302;242;65866;-71
2022/05/05 10:23:52;;;;;;;;;;;;;;;22.29;63.64;97452.23;586268;242;63026;-70
2022/05/05 10:26:23;;;;;;;;;;;;;;;22.29;64.34;97447.70;586264;242;66461;-68
2022/05/05 10:28:51;;;;;;;;;;;;;;;22.38;62.18;97456.00;586346;242;66310;-72
2022/05/05 10:31:39;;;;;;;;;;;;;;;22.47;61.54;97453.57;589881;239;65218;-72
2022/05/05 10:34:03;;;;;;;;;;;;;;;22.42;61.70;97453.57;590604;240;68521;-74
2022/05/05 10:36:30;;;;;;;;;;;;;;;22.38;61.10;97454.12;590844;240;67211;-73
2022/05/05 10:38:58;;;;;;;;;;;;;;;22.36;61.13;97442.06;590846;240;63239;-72
2022/05/05 10:41:27;;;;;;;;;;;;;;;22.35;62.39;97449.30;590853;240;68720;-73
2022/05/05 10:44:13;;;;;;;;;;;;;;;22.35;61.83;97451.98;590318;240;68841;-74
2022/05/05 10:47:06;;;;;;;;;;;;;;;22.35;62.75;97451.18;590872;240;65408;-74
2022/05/05 10:49:37;;;;;;;;;;;;;;;22.34;62.21;97458.42;590535;240;66705;-74
2022/05/05 10:52:12;;;;;;;;;;;;;;;22.34;62.52;97449.55;590863;240;66556;-76
2022/05/05 10:54:41;;;;;;;;;;;;;;;22.36;60.15;97447.42;590889;240;63131;-73
2022/05/05 10:57:30;;;;;;;;;;;;;;;22.35;60.29;97456.53;590794;240;68708;-72
2022/05/05 11:00:07;;;;;;;;;;;;;;;22.35;62.20;97451.18;590638;240;66507;-75
2022/05/05 11:02:36;;;;;;;;;;;;;;;22.35;57.62;97451.18;590348;240;63183;-74
2022/05/05 11:05:28;;;;;;;;;;;;;;;22.39;61.77;97447.67;590303;240;69662;-74
2022/05/05 11:07:57;;;;;;;;;;;;;;;22.39;57.67;97453.03;590928;240;69384;-76
2022/05/05 11:10:39;;;;;;;;;;;;;;;22.39;60.64;97452.23;590464;240;65999;-72
2022/05/05 11:13:07;;;;;;;;;;;;;;;22.34;57.90;97458.42;590801;240;69762;-77
2022/05/05 11:21:32;;;;;;;;;;;;;;;22.37;61.68;97452.52;575065;246;68977;-74
2022/05/05 11:24:04;;;;;;;;;;;;;;;22.38;63.47;97458.67;575156;246;66530;-76
2022/05/05 11:26:32;;;;;;;;;;;;;;;22.38;63.68;97456.00;583119;240;65301;-72
2022/05/05 11:29:00;;;;;;;;;;;;;;;22.38;62.43;97451.44;590849;240;66555;-75
2022/05/05 11:31:30;;;;;;;;;;;;;;;22.38;64.32;97448.76;587235;239;66452;-75
2022/05/05 11:34:00;;;;;;;;;;;;;;;22.38;63.35;97448.76;586399;242;65410;-74
2022/05/05 11:36:35;;;;;;;;;;;;;;;22.40;64.56;97451.18;586418;242;68273;-76
2022/05/05 11:39:03;;;;;;;;;;;;;;;22.41;63.44;97457.33;586331;242;66537;-73
2022/05/05 11:41:31;;;;;;;;;;;;;;;22.41;62.77;97452.77;586386;242;65390;-74
2022/05/05 11:44:18;;;;;;;;;;;;;;;22.41;63.53;97457.33;586392;242;66974;-82
2022/05/05 11:46:46;;;;;;;;;;;;;;;22.42;63.13;97453.57;586361;242;68569;-70
2022/05/05 11:49:14;;;;;;;;;;;;;;;22.44;64.52;97454.11;586355;242;65395;-73
2022/05/05 11:51:41;;;;;;;;;;;;;;;22.42;63.21;97457.05;586329;242;66642;-74
2022/05/05 11:54:10;;;;;;;;;;;;;;;22.43;63.36;97453.31;586376;242;68732;-76
2022/05/05 11:56:49;;;;;;;;;;;;;;;22.45;63.71;97459.19;586427;242;63170;-79
2022/05/05 12:02:05;;;;;;;;;;;;;;;22.49;60.63;97454.11;586306;242;69588;-73
2022/05/05 12:04:39;;;;;;;;;;;;;;;22.53;60.63;97450.61;586281;242;65602;-73
2022/05/05 12:07:04;;;;;;;;;;;;;;;22.55;61.60;97450.34;585978;242;66520;-74
2022/05/05 12:09:33;;;;;;;;;;;;;;;22.56;62.53;97442.05;586192;242;66673;-74
2022/05/05 12:12:14;;;;;;;;;;;;;;;22.56;62.58;97436.70;586461;242;63002;-74
2022/05/05 12:14:43;;;;;;;;;;;;;;;22.58;62.07;97450.60;586414;242;66702;-75
2022/05/05 12:17:17;;;;;;;;;;;;;;;22.60;62.35;97453.02;586334;242;68678;-77
2022/05/05 12:19:50;;;;;;;;;;;;;;;22.60;62.52;97453.02;586398;242;66052;-76
2022/05/05 12:22:39;;;;;;;;;;;;;;;22.59;62.22;97452.23;585938;242;52313;-76
2022/05/05 12:25:13;;;;;;;;;;;;;;;22.56;61.73;97444.73;586381;242;68379;-77
2022/05/05 12:27:37;;;;;;;;;;;;;;;22.57;61.59;97453.56;586369;241;62915;-78
2022/05/05 12:30:04;;;;;;;;;;;;;;;22.56;61.61;97457.30;586347;239;66645;-79
2022/05/05 12:32:32;;;;;;;;;;;;;;;22.55;61.67;97450.34;586399;242;66793;-79
2022/05/05 12:35:11;;;;;;;;;;;;;;;22.55;60.91;97447.67;586366;242;63247;-78
2022/05/05 12:37:39;;;;;;;;;;;;;;;22.54;60.82;97449.55;586336;242;68700;-79
2022/05/05 12:40:07;;;;;;;;;;;;;;;22.55;60.80;97450.34;586410;242;66586;-80
2022/05/05 12:42:45;;;;;;;;;;;;;;;22.55;60.69;97450.34;586383;242;65716;-78
2022/05/05 12:45:15;;;;;;;;;;;;;;;22.54;61.85;97443.39;586353;242;66085;-78
2022/05/05 12:47:43;;;;;;;;;;;;;;;22.54;60.78;97446.08;586416;242;68584;-75
2022/05/05 12:50:27;;;;;;;;;;;;;;;22.55;60.67;97444.98;586354;242;66319;-74
2022/05/05 13:01:23;;;;;;;;;;;;;;;22.59;60.39;97432.67;586395;242;66828;-76
2022/05/05 13:03:52;;;;;;;;;;;;;;;22.60;61.27;97432.39;586299;242;68643;-78
2022/05/05 13:06:20;;;;;;;;;;;;;;;22.60;60.81;97435.06;586408;242;63451;-74
2022/05/05 13:08:48;;;;;;;;;;;;;;;22.60;60.12;97436.95;586385;242;66542;-76
2022/05/05 13:11:17;;;;;;;;;;;;;;;22.61;61.54;97438.55;586382;242;66111;-74
2022/05/05 13:13:45;;;;;;;;;;;;;;;22.61;60.69;97433.19;586360;242;65175;-78
2022/05/05 13:16:13;;;;;;;;;;;;;;;22.62;61.00;97429.45;586433;242;68719;-74
2022/05/05 13:18:41;;;;;;;;;;;;;;;22.64;60.47;97437.20;586488;242;68555;-73
2022/05/05 13:21:09;;;;;;;;;;;;;;;22.64;60.38;97429.16;586311;242;63018;-73
2022/05/05 13:23:36;;;;;;;;;;;;;;;22.64;59.89;97426.48;586406;242;66588;-75
2022/05/05 13:26:04;;;;;;;;;;;;;;;22.64;60.56;97434.52;586412;242;66538;-73
2022/05/05 13:28:32;;;;;;;;;;;;;;;22.63;60.36;97422.21;586388;242;65573;-73
2022/05/05 13:31:00;;;;;;;;;;;;;;;22.63;60.25;97420.33;586342;239;68770;-73
2022/05/05 13:33:29;;;;;;;;;;;;;;;22.63;59.80;97416.86;586311;242;68684;-73
2022/05/05 13:35:57;;;;;;;;;;;;;;;22.64;60.00;97424.60;586396;242;65339;-75
2022/05/05 13:38:24;;;;;;;;;;;;;;;22.64;60.32;97415.77;586442;242;68685;-75
2022/05/05 13:40:53;;;;;;;;;;;;;;;22.64;59.22;97413.89;586481;242;68418;-75
2022/05/05 13:43:20;;;;;;;;;;;;;;;22.63;59.35;97414.97;586431;242;65350;-74
2022/05/05 13:45:48;;;;;;;;;;;;;;;22.65;60.18;97414.72;586444;242;69324;-74
2022/05/05 13:48:18;;;;;;;;;;;;;;;22.64;59.38;97415.77;586339;242;67024;-72